Time;durP1;ratioP1;P1;durP2;ratioP2;P2;SDS_P1;SDS_P2;PMS_P1;PMS_P2;Temp;Humidity;BMP_temperature;BMP_pressure;BME280_temperature;BME280_humidity;BME280_pressure;Samples;Min_cycle;Max_cycle;Signal;HPM_P1;HPM_P2
2021/07/17 00:00:27;;;;;;;;;;;;;;;17.01;60.25;101179.16;5133514;27;20373;-72
2021/07/17 00:02:54;;;;;;;;;;;;;;;16.87;60.66;101175.75;5133475;27;19923;-72
2021/07/17 00:05:20;;;;;;;;;;;;;;;16.87;60.50;101173.13;5133256;28;19923;-72
2021/07/17 00:07:48;;;;;;;;;;;;;;;16.76;61.23;101171.25;5133606;28;20286;-71
2021/07/17 00:10:16;;;;;;;;;;;;;;;16.73;61.16;101170.66;5133784;28;19923;-72
2021/07/17 00:12:42;;;;;;;;;;;;;;;16.77;61.32;101174.72;5133436;28;19946;-71
2021/07/17 00:15:10;;;;;;;;;;;;;;;16.79;61.63;101167.59;5133440;28;19930;-72
2021/07/17 00:17:36;;;;;;;;;;;;;;;16.80;61.43;101163.16;5133090;28;19923;-71
2021/07/17 00:20:06;;;;;;;;;;;;;;;16.76;61.13;101168.63;5133713;28;19938;-71
2021/07/17 00:22:32;;;;;;;;;;;;;;;16.72;61.26;101159.31;5133121;28;19931;-71
2021/07/17 00:25:00;;;;;;;;;;;;;;;16.72;61.91;101161.09;5133291;28;20373;-71
2021/07/17 00:27:27;;;;;;;;;;;;;;;16.68;62.14;101152.59;5133015;28;19938;-71
2021/07/17 00:29:54;;;;;;;;;;;;;;;16.67;61.89;101156.19;5133637;28;19930;-71
2021/07/17 00:32:20;;;;;;;;;;;;;;;16.75;61.04;101151.19;5133390;28;19924;-71
2021/07/17 00:34:47;;;;;;;;;;;;;;;16.73;60.64;101153.09;5133310;28;19931;-71
2021/07/17 00:37:13;;;;;;;;;;;;;;;16.61;61.18;101155.81;5133332;28;19923;-71
2021/07/17 00:39:40;;;;;;;;;;;;;;;16.64;60.78;101151.16;5132891;28;19934;-71
2021/07/17 00:42:08;;;;;;;;;;;;;;;16.62;60.94;101154.84;5133062;28;19930;-71
2021/07/17 00:44:35;;;;;;;;;;;;;;;16.67;60.58;101152.72;5133247;28;19924;-72
2021/07/17 00:47:01;;;;;;;;;;;;;;;16.66;60.22;101148.41;5133303;28;19924;-71
2021/07/17 00:49:28;;;;;;;;;;;;;;;16.78;59.90;101150.16;5132913;28;20393;-71
2021/07/17 00:51:55;;;;;;;;;;;;;;;16.74;60.15;101146.06;5133899;27;19924;-71
2021/07/17 00:54:23;;;;;;;;;;;;;;;16.74;60.21;101140.78;5136759;27;19927;-72
2021/07/17 00:56:50;;;;;;;;;;;;;;;16.80;60.59;101140.38;5137243;27;19923;-72
2021/07/17 00:59:19;;;;;;;;;;;;;;;16.73;60.68;101147.00;5136898;27;19923;-72
2021/07/17 01:01:46;;;;;;;;;;;;;;;16.73;60.09;101150.47;5137020;27;19923;-72
2021/07/17 01:04:13;;;;;;;;;;;;;;;16.72;60.25;101147.94;5136896;27;19924;-71
2021/07/17 01:06:41;;;;;;;;;;;;;;;16.81;59.37;101146.47;5136836;27;19927;-72
2021/07/17 01:09:07;;;;;;;;;;;;;;;16.68;59.73;101144.72;5136726;27;19931;-71
2021/07/17 01:11:34;;;;;;;;;;;;;;;16.69;59.91;101137.69;5136451;27;19923;-72
2021/07/17 01:14:01;;;;;;;;;;;;;;;16.74;59.50;101141.63;5153744;27;19911;-72
2021/07/17 01:16:29;;;;;;;;;;;;;;;16.72;59.87;101133.03;5152841;27;19930;-73
2021/07/17 01:18:55;;;;;;;;;;;;;;;16.71;60.25;101141.88;5146884;27;19930;-73
2021/07/17 01:21:23;;;;;;;;;;;;;;;16.73;60.40;101126.00;5146591;27;20316;-73
2021/07/17 01:23:50;;;;;;;;;;;;;;;16.79;60.67;101128.19;5136740;27;19923;-71
2021/07/17 01:26:17;;;;;;;;;;;;;;;16.79;61.18;101132.59;5136778;27;19924;-71
2021/07/17 01:28:43;;;;;;;;;;;;;;;16.81;61.32;101134.16;5136118;27;19931;-71
2021/07/17 01:31:10;;;;;;;;;;;;;;;16.68;61.99;101130.75;5136367;27;20388;-71
2021/07/17 01:33:39;;;;;;;;;;;;;;;16.68;62.28;101128.13;5135988;27;19931;-72
2021/07/17 01:36:05;;;;;;;;;;;;;;;16.72;62.47;101122.53;5136249;27;19923;-72
2021/07/17 01:38:33;;;;;;;;;;;;;;;16.69;64.10;101121.91;5135991;27;20308;-72
2021/07/17 01:41:01;;;;;;;;;;;;;;;16.62;69.53;101124.19;5136173;27;19924;-73
2021/07/17 01:43:28;;;;;;;;;;;;;;;16.50;71.70;101127.72;5136187;27;19930;-72
2021/07/17 01:45:58;;;;;;;;;;;;;;;16.35;72.08;101129.66;5135881;27;19923;-72
2021/07/17 01:48:24;;;;;;;;;;;;;;;16.23;72.80;101120.88;5136103;27;19923;-72
2021/07/17 01:50:51;;;;;;;;;;;;;;;16.14;73.08;101129.44;5136370;27;19936;-72
2021/07/17 01:53:17;;;;;;;;;;;;;;;16.12;72.59;101123.47;5135958;27;19931;-72
2021/07/17 01:55:45;;;;;;;;;;;;;;;16.03;73.50;101118.88;5135939;27;19950;-72
2021/07/17 01:58:12;;;;;;;;;;;;;;;15.98;73.69;101121.84;5135586;27;19927;-72
2021/07/17 02:00:39;;;;;;;;;;;;;;;15.98;74.44;101123.63;5136190;27;19924;-72
2021/07/17 02:03:06;;;;;;;;;;;;;;;15.90;74.35;101124.16;5135425;27;20301;-72
2021/07/17 02:05:32;;;;;;;;;;;;;;;15.96;74.73;101120.28;5135240;27;19927;-73
2021/07/17 02:08:00;;;;;;;;;;;;;;;15.98;74.73;101115.75;5136096;27;19923;-72
2021/07/17 02:10:28;;;;;;;;;;;;;;;15.93;75.40;101121.34;5135290;27;19930;-72
2021/07/17 02:13:00;;;;;;;;;;;;;;;15.91;75.60;101117.16;5135915;27;19931;-72
2021/07/17 02:15:27;;;;;;;;;;;;;;;15.88;75.84;101124.28;5135394;27;19923;-73
2021/07/17 02:17:54;;;;;;;;;;;;;;;15.88;76.18;101120.84;5135596;27;19930;-72
2021/07/17 02:20:21;;;;;;;;;;;;;;;15.85;76.27;101121.03;5135562;27;19946;-72
2021/07/17 02:22:47;;;;;;;;;;;;;;;15.81;76.46;101116.97;5135560;27;19923;-72
2021/07/17 02:25:14;;;;;;;;;;;;;;;15.84;76.36;101111.50;5135183;27;19930;-72
2021/07/17 02:27:41;;;;;;;;;;;;;;;15.85;75.81;101108.78;5135301;27;20335;-72
2021/07/17 02:30:09;;;;;;;;;;;;;;;15.87;76.40;101095.53;5135418;27;19930;-72
2021/07/17 02:32:36;;;;;;;;;;;;;;;15.92;76.41;101105.69;5134770;27;19923;-72
2021/07/17 02:35:03;;;;;;;;;;;;;;;15.78;76.18;101104.91;5135384;27;19928;-72
2021/07/17 02:37:30;;;;;;;;;;;;;;;15.76;76.58;101093.69;5135153;27;19934;-72
2021/07/17 02:39:56;;;;;;;;;;;;;;;15.77;76.76;101094.50;5134953;27;19931;-72
2021/07/17 02:42:23;;;;;;;;;;;;;;;15.82;76.02;101101.09;5135028;27;19924;-72
2021/07/17 02:44:50;;;;;;;;;;;;;;;15.82;75.76;101095.84;5134708;27;19923;-72
2021/07/17 02:47:18;;;;;;;;;;;;;;;15.85;75.50;101097.41;5134668;27;20338;-72
2021/07/17 02:49:45;;;;;;;;;;;;;;;15.87;75.62;101091.09;5134837;27;20297;-72
2021/07/17 02:52:11;;;;;;;;;;;;;;;15.98;75.14;101094.75;5134471;27;19923;-72
2021/07/17 02:54:38;;;;;;;;;;;;;;;16.07;74.96;101088.84;5134618;27;20411;-72
2021/07/17 02:57:05;;;;;;;;;;;;;;;16.11;75.19;101092.94;5134891;27;19924;-72
2021/07/17 02:59:31;;;;;;;;;;;;;;;16.23;74.96;101092.00;5134650;27;19924;-72
2021/07/17 03:01:58;;;;;;;;;;;;;;;16.36;75.32;101077.97;5134949;27;19930;-72
2021/07/17 03:04:26;;;;;;;;;;;;;;;16.31;75.17;101075.69;5134212;27;19930;-72
2021/07/17 03:06:52;;;;;;;;;;;;;;;16.35;74.52;101078.94;5134347;27;19930;-72
2021/07/17 03:09:19;;;;;;;;;;;;;;;16.48;72.43;101082.31;5134200;27;20381;-72
2021/07/17 03:11:45;;;;;;;;;;;;;;;16.63;70.09;101083.81;5134315;27;19930;-72
2021/07/17 03:14:12;;;;;;;;;;;;;;;16.80;68.70;101073.84;5133813;27;20333;-72
2021/07/17 03:16:39;;;;;;;;;;;;;;;16.97;67.25;101073.38;5133880;27;19924;-72
2021/07/17 03:19:05;;;;;;;;;;;;;;;17.13;66.88;101073.03;5134377;27;19924;-72
2021/07/17 03:21:33;;;;;;;;;;;;;;;17.23;65.78;101074.00;5134207;27;19938;-72
2021/07/17 03:24:00;;;;;;;;;;;;;;;17.34;65.51;101071.38;5134398;27;19930;-73
2021/07/17 03:26:26;;;;;;;;;;;;;;;17.39;65.38;101079.75;5133913;27;19923;-73
2021/07/17 03:28:53;;;;;;;;;;;;;;;17.41;64.94;101063.81;5133975;27;19934;-72
2021/07/17 03:31:26;;;;;;;;;;;;;;;17.47;65.34;101078.28;5134259;27;19923;-72
2021/07/17 03:33:52;;;;;;;;;;;;;;;17.45;64.86;101069.69;5134224;27;19930;-72
2021/07/17 03:36:19;;;;;;;;;;;;;;;17.52;64.98;101076.13;5133856;27;19923;-72
2021/07/17 03:38:47;;;;;;;;;;;;;;;17.54;65.12;101066.31;5133545;27;19924;-72
2021/07/17 03:41:13;;;;;;;;;;;;;;;17.55;65.32;101074.09;5133809;27;19927;-72
2021/07/17 03:43:40;;;;;;;;;;;;;;;17.56;65.67;101074.94;5133830;27;19924;-72
2021/07/17 03:46:07;;;;;;;;;;;;;;;17.62;65.45;101071.81;5134033;27;19923;-72
2021/07/17 03:48:33;;;;;;;;;;;;;;;17.60;66.18;101065.84;5133399;27;19934;-72
2021/07/17 03:51:00;;;;;;;;;;;;;;;17.60;65.31;101071.13;5133842;27;19924;-72
2021/07/17 03:53:28;;;;;;;;;;;;;;;17.57;65.65;101069.56;5133419;27;19923;-72
2021/07/17 03:55:56;;;;;;;;;;;;;;;17.58;65.39;101075.66;5133665;27;19923;-72
2021/07/17 03:58:23;;;;;;;;;;;;;;;17.54;65.72;101077.69;5133572;27;19931;-72
2021/07/17 04:00:50;;;;;;;;;;;;;;;17.53;66.39;101075.19;5133760;27;19978;-72
2021/07/17 04:03:16;;;;;;;;;;;;;;;17.53;66.34;101073.38;5134078;27;19923;-72
2021/07/17 04:05:43;;;;;;;;;;;;;;;17.40;66.66;101072.69;5133753;27;20312;-72
2021/07/17 04:08:11;;;;;;;;;;;;;;;17.42;66.58;101073.41;5133787;28;19923;-72
2021/07/17 04:10:37;;;;;;;;;;;;;;;17.50;66.19;101073.63;5133188;28;19972;-72
2021/07/17 04:13:05;;;;;;;;;;;;;;;17.52;65.14;101079.63;5133546;28;20289;-72
2021/07/17 04:15:32;;;;;;;;;;;;;;;17.45;65.99;101070.53;5133497;28;19923;-72
2021/07/17 04:17:58;;;;;;;;;;;;;;;17.50;66.00;101068.38;5133359;28;20289;-72
2021/07/17 04:20:25;;;;;;;;;;;;;;;17.58;66.18;101073.84;5133327;28;19931;-72
2021/07/17 04:22:52;;;;;;;;;;;;;;;17.55;66.43;101078.53;5133609;28;20301;-72
2021/07/17 04:25:19;;;;;;;;;;;;;;;17.54;66.65;101074.22;5133561;28;19930;-72
2021/07/17 04:27:45;;;;;;;;;;;;;;;17.65;65.77;101084.75;5136976;27;19923;-72
2021/07/17 04:30:14;;;;;;;;;;;;;;;17.67;65.12;101089.88;5137695;27;19930;-72
2021/07/17 04:32:40;;;;;;;;;;;;;;;17.72;65.27;101082.44;5137389;27;19930;-72
2021/07/17 04:35:07;;;;;;;;;;;;;;;17.77;65.35;101088.16;5137380;27;19923;-72
2021/07/17 04:37:34;;;;;;;;;;;;;;;17.81;65.39;101089.66;5137407;27;19972;-72
2021/07/17 04:40:01;;;;;;;;;;;;;;;17.93;65.49;101080.75;5137595;27;19931;-72
2021/07/17 04:42:28;;;;;;;;;;;;;;;17.96;65.46;101080.50;5136825;27;20370;-72
2021/07/17 04:44:54;;;;;;;;;;;;;;;18.06;64.97;101086.69;5137389;27;19927;-72
2021/07/17 04:47:22;;;;;;;;;;;;;;;18.18;64.76;101081.38;5137152;27;19931;-72
2021/07/17 04:49:49;;;;;;;;;;;;;;;18.13;64.77;101088.81;5137111;27;19924;-72
2021/07/17 04:52:15;;;;;;;;;;;;;;;18.15;64.81;101082.47;5136785;27;20289;-72
2021/07/17 04:54:42;;;;;;;;;;;;;;;18.26;64.72;101081.59;5136892;27;19927;-72
2021/07/17 04:57:09;;;;;;;;;;;;;;;18.37;63.50;101085.97;5136967;27;19924;-72
2021/07/17 04:59:35;;;;;;;;;;;;;;;18.39;63.86;101078.78;5136707;27;19931;-72
2021/07/17 05:02:02;;;;;;;;;;;;;;;18.62;63.70;101085.59;5137166;27;19946;-72
2021/07/17 05:04:30;;;;;;;;;;;;;;;18.80;63.43;101085.88;5136514;27;19923;-72
2021/07/17 05:06:56;;;;;;;;;;;;;;;18.82;62.93;101083.13;5136636;27;19923;-72
2021/07/17 05:09:23;;;;;;;;;;;;;;;18.87;63.14;101081.75;5136822;27;19923;-72
2021/07/17 05:11:49;;;;;;;;;;;;;;;18.79;62.58;101078.94;5137083;27;19930;-72
2021/07/17 05:14:16;;;;;;;;;;;;;;;18.66;64.67;101075.66;5136749;27;19924;-72
2021/07/17 05:16:43;;;;;;;;;;;;;;;18.73;63.15;101082.09;5136567;27;19984;-72
2021/07/17 05:19:10;;;;;;;;;;;;;;;18.72;63.39;101072.47;5136607;27;19923;-72
2021/07/17 05:21:38;;;;;;;;;;;;;;;18.67;62.32;101072.03;5136212;27;20305;-72
2021/07/17 05:24:05;;;;;;;;;;;;;;;18.88;62.73;101070.28;5136736;27;20297;-72
2021/07/17 05:26:31;;;;;;;;;;;;;;;18.48;63.87;101078.84;5136352;27;19946;-72
2021/07/17 05:28:58;;;;;;;;;;;;;;;18.63;64.05;101071.47;5136304;27;19924;-72
2021/07/17 05:31:24;;;;;;;;;;;;;;;18.86;63.78;101068.72;5136417;27;19927;-72
2021/07/17 05:33:51;;;;;;;;;;;;;;;19.03;63.04;101080.47;5136522;27;19930;-72
2021/07/17 05:36:18;;;;;;;;;;;;;;;19.19;62.70;101077.34;5136158;27;20408;-72
2021/07/17 05:38:45;;;;;;;;;;;;;;;19.25;62.51;101077.66;5135047;27;19927;-72
2021/07/17 05:41:12;;;;;;;;;;;;;;;19.29;61.60;101080.84;5136035;27;19931;-72
2021/07/17 05:43:39;;;;;;;;;;;;;;;19.12;61.68;101069.97;5135782;27;20397;-72
2021/07/17 05:46:05;;;;;;;;;;;;;;;19.09;60.75;101072.03;5136454;27;19923;-72
2021/07/17 05:48:32;;;;;;;;;;;;;;;19.25;61.04;101068.91;5135635;27;19924;-73
2021/07/17 05:50:58;;;;;;;;;;;;;;;19.26;61.00;101071.41;5135920;27;19924;-72
2021/07/17 05:53:25;;;;;;;;;;;;;;;19.33;59.85;101067.25;5135423;27;20381;-73
2021/07/17 05:55:53;;;;;;;;;;;;;;;19.50;58.84;101067.59;5135933;27;20301;-72
2021/07/17 05:58:20;;;;;;;;;;;;;;;19.63;58.63;101067.38;5135729;27;19923;-72
2021/07/17 06:00:47;;;;;;;;;;;;;;;19.83;57.94;101070.88;5135717;27;19923;-72
2021/07/17 06:03:14;;;;;;;;;;;;;;;19.69;56.11;101066.84;5135571;27;20373;-72
2021/07/17 06:05:40;;;;;;;;;;;;;;;19.56;55.42;101053.88;5135309;27;20292;-72
2021/07/17 06:08:07;;;;;;;;;;;;;;;19.60;55.55;101063.19;5135876;27;19923;-72
2021/07/17 06:10:33;;;;;;;;;;;;;;;19.77;54.38;101070.47;5135317;27;19923;-72
2021/07/17 06:13:01;;;;;;;;;;;;;;;19.99;55.07;101071.19;5135778;27;19923;-72
2021/07/17 06:15:28;;;;;;;;;;;;;;;19.98;53.99;101065.06;5135122;27;20404;-72
2021/07/17 06:17:54;;;;;;;;;;;;;;;19.50;56.36;101064.97;5135366;27;20293;-73
2021/07/17 06:20:21;;;;;;;;;;;;;;;19.69;58.42;101069.47;5135883;27;19923;-72
2021/07/17 06:22:48;;;;;;;;;;;;;;;19.50;60.35;101063.16;5135266;27;19923;-73
2021/07/17 06:25:15;;;;;;;;;;;;;;;19.71;58.96;101071.00;5135369;27;19935;-72
2021/07/17 06:27:41;;;;;;;;;;;;;;;19.80;59.42;101070.19;5135286;27;19930;-72
2021/07/17 06:30:10;;;;;;;;;;;;;;;19.49;59.46;101063.28;5135080;27;19924;-72
2021/07/17 06:32:37;;;;;;;;;;;;;;;19.37;60.02;101067.84;5135130;27;19955;-72
2021/07/17 06:35:03;;;;;;;;;;;;;;;19.37;60.59;101057.28;5135278;27;19930;-72
2021/07/17 06:37:30;;;;;;;;;;;;;;;19.33;60.33;101055.88;5134826;27;19935;-73
2021/07/17 06:39:57;;;;;;;;;;;;;;;19.55;60.46;101050.41;5135012;27;19931;-72
2021/07/17 06:42:23;;;;;;;;;;;;;;;19.54;60.85;101055.78;5134805;27;20404;-72
2021/07/17 06:44:50;;;;;;;;;;;;;;;19.81;59.87;101052.56;5135117;27;19923;-72
2021/07/17 06:47:18;;;;;;;;;;;;;;;19.99;57.64;101048.25;5135226;27;19931;-72
2021/07/17 06:49:44;;;;;;;;;;;;;;;19.90;58.45;101057.00;5134759;27;19923;-73
2021/07/17 06:52:11;;;;;;;;;;;;;;;19.89;58.27;101047.41;5134681;27;19931;-72
2021/07/17 06:54:37;;;;;;;;;;;;;;;19.99;57.07;101044.78;5134539;27;20473;-72
2021/07/17 06:57:04;;;;;;;;;;;;;;;20.10;57.90;101046.47;5135108;27;19932;-72
2021/07/17 06:59:30;;;;;;;;;;;;;;;20.26;55.85;101052.00;5134609;27;19930;-72
2021/07/17 07:01:57;;;;;;;;;;;;;;;20.31;55.51;101051.59;5134803;27;19924;-73
2021/07/17 07:04:26;;;;;;;;;;;;;;;20.66;54.40;101054.50;5134489;27;20373;-72
2021/07/17 07:06:52;;;;;;;;;;;;;;;20.76;52.94;101046.53;5134492;27;20026;-72
2021/07/17 07:09:19;;;;;;;;;;;;;;;21.01;52.66;101047.69;5134572;27;19947;-72
2021/07/17 07:11:46;;;;;;;;;;;;;;;21.68;51.58;101050.16;5134427;27;19936;-72
2021/07/17 07:14:12;;;;;;;;;;;;;;;21.96;48.84;101054.44;5134383;27;19924;-72
2021/07/17 07:16:39;;;;;;;;;;;;;;;21.37;49.97;101050.44;5134332;27;20026;-72
2021/07/17 07:19:05;;;;;;;;;;;;;;;21.38;49.40;101060.09;5134443;27;20119;-72
2021/07/17 07:21:33;;;;;;;;;;;;;;;21.64;48.86;101054.09;5133827;27;19923;-72
2021/07/17 07:24:00;;;;;;;;;;;;;;;21.83;49.10;101050.47;5134120;27;19931;-72
2021/07/17 07:26:26;;;;;;;;;;;;;;;21.64;49.75;101051.47;5133765;27;20411;-72
2021/07/17 07:28:56;;;;;;;;;;;;;;;22.11;48.73;101049.41;5134225;27;19923;-72
2021/07/17 07:31:23;;;;;;;;;;;;;;;22.78;48.17;101048.94;5134049;27;19923;-72
2021/07/17 07:33:49;;;;;;;;;;;;;;;23.55;45.97;101038.34;5133944;27;19923;-72
2021/07/17 07:36:16;;;;;;;;;;;;;;;24.08;45.70;101059.22;5134110;27;19927;-72
2021/07/17 07:38:44;;;;;;;;;;;;;;;24.32;44.48;101045.09;5133517;27;19927;-72
2021/07/17 07:41:11;;;;;;;;;;;;;;;24.38;45.53;101042.75;5133946;27;19924;-72
2021/07/17 07:43:37;;;;;;;;;;;;;;;23.90;45.09;101046.09;5133677;27;19923;-72
2021/07/17 07:46:04;;;;;;;;;;;;;;;23.97;44.75;101046.28;5134736;27;19923;-73
2021/07/17 07:48:31;;;;;;;;;;;;;;;24.22;44.89;101046.25;5136812;27;19923;-72
2021/07/17 07:50:58;;;;;;;;;;;;;;;23.63;45.25;101047.16;5134194;27;19923;-72
2021/07/17 07:53:24;;;;;;;;;;;;;;;22.86;48.75;101042.84;5133174;27;20327;-72
2021/07/17 07:55:52;;;;;;;;;;;;;;;22.92;48.06;101047.53;5133930;27;19923;-72
2021/07/17 07:58:19;;;;;;;;;;;;;;;24.23;45.39;101047.94;5133904;27;19930;-72
2021/07/17 08:00:45;;;;;;;;;;;;;;;24.10;45.24;101048.44;5132927;27;19932;-72
2021/07/17 08:03:12;;;;;;;;;;;;;;;23.90;45.34;101050.56;5133606;27;20400;-72
2021/07/17 08:05:39;;;;;;;;;;;;;;;23.41;45.97;101056.56;5133329;27;19923;-72
2021/07/17 08:08:06;;;;;;;;;;;;;;;23.74;44.65;101046.06;5133851;27;19924;-72
2021/07/17 08:10:32;;;;;;;;;;;;;;;23.68;45.94;101046.69;5133317;28;19924;-72
2021/07/17 08:13:00;;;;;;;;;;;;;;;23.67;46.45;101051.16;5133456;28;20404;-72
2021/07/17 08:15:27;;;;;;;;;;;;;;;24.55;43.25;101045.25;5133396;28;19931;-72
2021/07/17 08:17:53;;;;;;;;;;;;;;;23.94;44.58;101045.75;5133474;28;19923;-72
2021/07/17 08:20:20;;;;;;;;;;;;;;;25.13;42.05;101045.94;5133450;28;20397;-72
2021/07/17 08:22:47;;;;;;;;;;;;;;;25.44;42.56;101041.69;5133363;28;19958;-73
2021/07/17 08:25:13;;;;;;;;;;;;;;;25.72;41.42;101040.16;5133596;28;19923;-71
2021/07/17 08:27:40;;;;;;;;;;;;;;;26.44;39.55;101050.44;5132994;28;19924;-70
2021/07/17 08:30:11;;;;;;;;;;;;;;;23.86;43.86;101041.25;5133334;28;20412;-70
2021/07/17 08:32:37;;;;;;;;;;;;;;;24.44;43.05;101029.63;5133347;28;19923;-70
2021/07/17 08:35:04;;;;;;;;;;;;;;;24.93;42.63;101034.88;5133541;28;19923;-70
2021/07/17 08:37:31;;;;;;;;;;;;;;;25.12;40.33;101038.13;5132787;28;19923;-70
2021/07/17 08:39:57;;;;;;;;;;;;;;;23.93;41.76;101036.94;5133534;28;20292;-71
2021/07/17 08:42:25;;;;;;;;;;;;;;;25.27;39.90;101043.59;5133335;28;19931;-71
2021/07/17 08:44:54;;;;;;;;;;;;;;;24.95;41.82;101034.72;5133193;28;20374;-70
2021/07/17 08:47:23;;;;;;;;;;;;;;;25.76;39.91;101046.78;5133361;28;19923;-71
2021/07/17 08:49:50;;;;;;;;;;;;;;;25.46;41.94;101044.97;5133573;28;19924;-70
2021/07/17 08:52:17;;;;;;;;;;;;;;;26.58;38.70;101048.00;5133146;28;19935;-69
2021/07/17 08:54:43;;;;;;;;;;;;;;;25.37;39.35;101037.03;5133452;28;19923;-70
2021/07/17 08:57:11;;;;;;;;;;;;;;;25.11;41.18;101042.63;5133305;28;19923;-70
2021/07/17 08:59:37;;;;;;;;;;;;;;;25.49;40.93;101048.13;5132661;28;20396;-71
2021/07/17 09:02:04;;;;;;;;;;;;;;;24.66;43.20;101051.22;5133309;28;19924;-70
2021/07/17 09:04:32;;;;;;;;;;;;;;;24.39;43.18;101047.91;5133068;28;19924;-71
2021/07/17 09:06:59;;;;;;;;;;;;;;;24.64;43.18;101047.94;5132873;28;19930;-70
2021/07/17 09:09:30;;;;;;;;;;;;;;;24.89;41.54;101043.34;5132514;28;19923;-72
2021/07/17 09:11:58;;;;;;;;;;;;;;;25.03;42.07;101041.84;5132931;27;19927;-72
2021/07/17 09:14:37;;;;;;;;;;;;;;;24.43;42.67;101035.09;5135590;27;20390;-72
2021/07/17 09:17:04;;;;;;;;;;;;;;;25.01;41.62;101031.34;5136689;27;20373;-72
2021/07/17 09:19:32;;;;;;;;;;;;;;;25.10;40.44;101030.31;5136556;27;19924;-72
2021/07/17 09:21:59;;;;;;;;;;;;;;;25.39;40.94;101029.69;5136760;27;19931;-72
2021/07/17 09:24:26;;;;;;;;;;;;;;;25.65;39.82;101020.56;5136218;27;19923;-72
2021/07/17 09:26:53;;;;;;;;;;;;;;;27.56;37.32;101020.13;5136755;27;19954;-72
2021/07/17 09:29:20;;;;;;;;;;;;;;;26.73;38.42;101027.50;5136301;27;19969;-72
2021/07/17 09:31:54;;;;;;;;;;;;;;;25.72;38.67;101023.34;5136198;27;19927;-72
2021/07/17 09:34:21;;;;;;;;;;;;;;;25.81;39.81;101024.94;5136629;27;19923;-73
2021/07/17 09:36:53;;;;;;;;;;;;;;;25.77;39.80;101019.16;5136203;27;19924;-71
2021/07/17 09:39:21;;;;;;;;;;;;;;;26.94;37.08;101037.44;5136468;27;19929;-70
2021/07/17 09:41:54;;;;;;;;;;;;;;;25.52;39.18;101022.97;5136070;27;20270;-70
2021/07/17 09:44:22;;;;;;;;;;;;;;;26.81;37.71;101031.91;5135928;27;20373;-70
2021/07/17 09:46:48;;;;;;;;;;;;;;;24.76;41.36;101035.91;5135911;27;19934;-70
2021/07/17 09:49:17;;;;;;;;;;;;;;;25.62;38.92;101040.41;5136089;27;20420;-70
2021/07/17 09:51:44;;;;;;;;;;;;;;;25.53;39.72;101045.94;5136176;27;19924;-70
2021/07/17 09:54:11;;;;;;;;;;;;;;;25.62;39.20;101021.75;5135670;27;19969;-70
2021/07/17 09:56:40;;;;;;;;;;;;;;;24.90;40.31;101024.56;5135500;27;19924;-70
2021/07/17 09:59:07;;;;;;;;;;;;;;;24.40;41.05;101030.13;5135717;27;19927;-70
2021/07/17 10:01:35;;;;;;;;;;;;;;;25.27;40.51;101040.91;5135461;27;19924;-70
2021/07/17 10:04:04;;;;;;;;;;;;;;;27.44;36.17;101037.69;5136023;27;19928;-70
2021/07/17 10:06:45;;;;;;;;;;;;;;;26.81;37.18;101040.75;5135653;27;20149;-70
2021/07/17 10:09:30;;;;;;;;;;;;;;;26.41;39.09;101037.47;5135530;27;20329;-70
2021/07/17 10:11:58;;;;;;;;;;;;;;;24.66;41.76;101032.59;5136172;27;19988;-72
2021/07/17 10:14:26;;;;;;;;;;;;;;;24.10;42.73;101033.31;5135536;27;19930;-71
2021/07/17 10:16:55;;;;;;;;;;;;;;;26.45;38.87;101032.59;5135686;27;19928;-71
2021/07/17 10:19:22;;;;;;;;;;;;;;;26.06;38.57;101033.63;5135358;27;20296;-71
2021/07/17 10:21:49;;;;;;;;;;;;;;;25.92;39.41;101039.72;5135291;27;20278;-71
2021/07/17 10:24:16;;;;;;;;;;;;;;;25.01;41.00;101033.19;5135346;27;19923;-71
2021/07/17 10:26:45;;;;;;;;;;;;;;;24.10;42.90;101027.19;5134827;27;19927;-71
2021/07/17 10:29:12;;;;;;;;;;;;;;;24.51;42.95;101027.19;5135521;27;19978;-71
2021/07/17 10:31:40;;;;;;;;;;;;;;;25.51;40.05;101023.97;5135178;27;19958;-71
2021/07/17 10:34:06;;;;;;;;;;;;;;;27.62;37.21;101014.03;5135078;27;20393;-71
2021/07/17 10:36:35;;;;;;;;;;;;;;;28.10;35.88;101019.63;5135104;27;19927;-71
2021/07/17 10:39:03;;;;;;;;;;;;;;;25.63;38.24;101017.25;5135398;27;19923;-71
2021/07/17 10:41:32;;;;;;;;;;;;;;;26.31;36.99;101007.56;5135123;27;19924;-71
2021/07/17 10:44:00;;;;;;;;;;;;;;;26.45;36.21;101011.25;5135307;27;19927;-72
2021/07/17 10:46:28;;;;;;;;;;;;;;;26.91;36.16;101005.78;5134969;27;19934;-71
2021/07/17 10:48:56;;;;;;;;;;;;;;;27.46;35.27;101006.25;5135124;27;19976;-71
2021/07/17 10:51:32;;;;;;;;;;;;;;;27.14;36.01;101003.81;5134384;27;19923;-72
2021/07/17 10:54:00;;;;;;;;;;;;;;;26.45;37.36;100998.75;5134539;27;20014;-71
2021/07/17 10:56:41;;;;;;;;;;;;;;;26.79;36.42;100997.41;5134717;27;19927;-71
2021/07/17 10:59:29;;;;;;;;;;;;;;;27.11;36.34;100992.69;5134558;27;19927;-71
2021/07/17 11:02:08;;;;;;;;;;;;;;;25.39;38.68;101003.06;5134442;27;19923;-71
2021/07/17 11:04:36;;;;;;;;;;;;;;;26.25;37.77;101017.09;5134443;27;19930;-71
2021/07/17 11:07:21;;;;;;;;;;;;;;;27.34;35.98;100992.56;5134403;27;19923;-71
2021/07/17 11:09:49;;;;;;;;;;;;;;;26.64;37.02;100988.56;5134629;27;20293;-71
2021/07/17 11:12:19;;;;;;;;;;;;;;;26.23;37.26;100995.16;5134559;27;19968;-71
2021/07/17 11:14:47;;;;;;;;;;;;;;;26.42;37.63;100984.97;5134562;27;19930;-71
2021/07/17 11:17:13;;;;;;;;;;;;;;;26.49;37.74;100981.38;5134210;27;19931;-72
2021/07/17 11:19:40;;;;;;;;;;;;;;;27.09;36.60;100989.38;5134204;27;20373;-71
2021/07/17 11:22:09;;;;;;;;;;;;;;;26.47;38.03;100983.38;5134707;27;19923;-71
2021/07/17 11:24:36;;;;;;;;;;;;;;;27.35;38.41;100979.00;5134227;27;19931;-71
2021/07/17 11:27:10;;;;;;;;;;;;;;;28.03;36.23;100992.03;5134010;27;19923;-71
2021/07/17 11:29:40;;;;;;;;;;;;;;;27.01;37.20;100984.97;5133672;27;20281;-72
2021/07/17 11:32:09;;;;;;;;;;;;;;;27.64;38.33;100990.59;5133989;27;19924;-71
2021/07/17 11:34:35;;;;;;;;;;;;;;;29.06;35.68;100987.75;5133639;27;19934;-71
2021/07/17 11:37:06;;;;;;;;;;;;;;;28.09;36.46;100996.59;5133536;27;19923;-72
2021/07/17 11:39:34;;;;;;;;;;;;;;;25.49;41.21;100986.06;5133862;27;19924;-71
2021/07/17 11:42:01;;;;;;;;;;;;;;;26.16;41.16;100988.03;5133929;27;19927;-72
2021/07/17 11:44:28;;;;;;;;;;;;;;;26.68;40.30;100992.53;5133648;27;20365;-72
2021/07/17 11:46:55;;;;;;;;;;;;;;;25.75;43.01;100988.34;5134185;27;19924;-72
2021/07/17 11:49:26;;;;;;;;;;;;;;;25.23;44.64;100999.66;5133719;27;19924;-72
2021/07/17 11:51:53;;;;;;;;;;;;;;;23.89;47.40;100993.09;5133858;27;19927;-72
2021/07/17 11:54:24;;;;;;;;;;;;;;;23.60;48.81;101004.16;5093068;28;19953;-72
2021/07/17 11:57:02;;;;;;;;;;;;;;;22.00;51.81;100993.19;5092321;28;20205;-72
2021/07/17 11:59:28;;;;;;;;;;;;;;;22.02;51.85;100997.38;5092706;28;19928;-71
2021/07/17 12:02:08;;;;;;;;;;;;;;;22.52;50.85;100988.78;5093024;28;20010;-72
2021/07/17 12:04:38;;;;;;;;;;;;;;;23.22;47.70;100985.16;5092380;28;20377;-72
2021/07/17 12:07:05;;;;;;;;;;;;;;;22.77;48.42;100980.97;5092513;28;20406;-71
2021/07/17 12:09:36;;;;;;;;;;;;;;;23.73;46.18;100985.13;5092675;28;19924;-72
2021/07/17 12:12:12;;;;;;;;;;;;;;;23.33;46.30;100976.09;5092606;28;19924;-72
2021/07/17 12:14:39;;;;;;;;;;;;;;;23.72;45.61;100973.69;5092475;28;19924;-72
2021/07/17 12:17:06;;;;;;;;;;;;;;;24.26;43.36;100975.81;5092720;28;20302;-72
2021/07/17 12:19:32;;;;;;;;;;;;;;;25.53;40.25;100968.69;5092680;28;19931;-72
2021/07/17 12:22:00;;;;;;;;;;;;;;;26.29;38.52;100965.06;5092540;28;20374;-72
2021/07/17 12:24:27;;;;;;;;;;;;;;;28.19;36.21;100962.31;5092173;28;19924;-72
2021/07/17 12:27:01;;;;;;;;;;;;;;;26.00;37.95;100970.38;5092304;28;20291;-72
2021/07/17 12:29:27;;;;;;;;;;;;;;;25.91;38.74;100956.25;5092335;28;19924;-71
2021/07/17 12:32:00;;;;;;;;;;;;;;;26.82;36.80;100956.16;5092665;28;19931;-71
2021/07/17 12:34:27;;;;;;;;;;;;;;;26.74;38.48;100950.94;5092073;28;19924;-70
2021/07/17 12:36:53;;;;;;;;;;;;;;;25.10;40.42;100961.09;5092530;28;19946;-72